createdAt,value
2022-09-18T00:01:26.083Z,98299.66
2022-09-18T00:03:58.624Z,98302.38
2022-09-18T00:06:33.883Z,98300.69
2022-09-18T00:09:02.284Z,98293.22
2022-09-18T00:11:35.441Z,98288.78
2022-09-18T00:14:02.406Z,98294.06
2022-09-18T00:16:28.908Z,98287.75
2022-09-18T00:18:56.370Z,98287.53
2022-09-18T00:21:25.348Z,98288.09
2022-09-18T00:23:57.817Z,98289.53
2022-09-18T00:26:25.767Z,98287.53
2022-09-18T00:28:53.644Z,98292.47
2022-09-18T00:31:25.710Z,98292.38
2022-09-18T00:33:53.694Z,98284.66
2022-09-18T00:36:21.125Z,98292.53
2022-09-18T00:38:48.915Z,98295.50
2022-09-18T00:41:26.566Z,98290.25
2022-09-18T00:44:01.449Z,98289.81
2022-09-18T00:46:35.539Z,98284.31
2022-09-18T00:49:19.315Z,98287.50
2022-09-18T00:51:50.416Z,98291.72
2022-09-18T00:54:28.487Z,98286.31
2022-09-18T00:57:01.706Z,98288.03
2022-09-18T00:59:32.334Z,98289.75
2022-09-18T01:02:00.305Z,98293.72
2022-09-18T01:04:29.252Z,98284.56
2022-09-18T01:07:13.672Z,98293.78
2022-09-18T01:10:18.575Z,98289.81
2022-09-18T01:12:58.242Z,98296.13
2022-09-18T01:16:00.542Z,98291.31
2022-09-18T01:19:05.864Z,98283.66
2022-09-18T01:21:56.742Z,98285.31
2022-09-18T01:24:58.558Z,98276.25
2022-09-18T01:27:46.883Z,98280.47
2022-09-18T01:30:13.619Z,98274.78
2022-09-18T01:32:51.194Z,98282.47
2022-09-18T01:35:41.198Z,98278.47
2022-09-18T01:38:15.055Z,98279.22
2022-09-18T01:40:51.448Z,98272.91
2022-09-18T01:43:21.782Z,98270.91
2022-09-18T01:45:54.544Z,98270.91
2022-09-18T01:48:30.604Z,98273.03
2022-09-18T01:51:22.614Z,98273.97
2022-09-18T01:53:56.475Z,98274.50
2022-09-18T01:56:32.588Z,98278.59
2022-09-18T01:59:11.252Z,98274.88
2022-09-18T02:01:43.559Z,98278.03
2022-09-18T02:04:31.920Z,98270.88
2022-09-18T02:07:07.695Z,98283.94
2022-09-18T02:09:35.125Z,98275.38
2022-09-18T02:12:06.014Z,98270.72
2022-09-18T02:14:40.795Z,98269.66
2022-09-18T02:17:27.470Z,98269.25
2022-09-18T02:20:10.062Z,98277.72
2022-09-18T02:22:38.865Z,98278.88
2022-09-18T02:25:12.230Z,98271.09
2022-09-18T02:27:41.900Z,98277.50
2022-09-18T02:30:10.410Z,98267.25
2022-09-18T02:32:40.020Z,98269.41
2022-09-18T02:35:10.070Z,98265.84
2022-09-18T02:38:02.221Z,98262.38
2022-09-18T02:41:18.228Z,98265.03
2022-09-18T02:44:15.127Z,98267.19
2022-09-18T02:47:05.128Z,98264.25
2022-09-18T02:49:48.757Z,98269.31
2022-09-18T02:53:03.911Z,98261.91
2022-09-18T02:55:45.645Z,98256.09
2022-09-18T02:58:36.263Z,98254.56
2022-09-18T03:01:05.914Z,98250.16
2022-09-18T03:03:37.937Z,98255.94
2022-09-18T03:06:06.717Z,98245.28
2022-09-18T03:08:33.955Z,98251.38
2022-09-18T03:11:00.491Z,98247.63
2022-09-18T03:13:27.458Z,98252.72
2022-09-18T03:15:55.891Z,98256.44
2022-09-18T03:18:23.022Z,98241.47
2022-09-18T03:20:49.517Z,98249.88
2022-09-18T03:23:16.136Z,98253.88
2022-09-18T03:25:42.579Z,98249.59
2022-09-18T03:28:09.214Z,98251.50
2022-09-18T03:30:36.165Z,98247.44
2022-09-18T03:33:02.776Z,98240.06
2022-09-18T03:35:29.278Z,98238.78
2022-09-18T03:37:56.042Z,98247.34
2022-09-18T03:40:22.608Z,98252.06
2022-09-18T03:42:50.665Z,98251.59
2022-09-18T03:45:17.455Z,98254.16
2022-09-18T03:47:44.693Z,98243.34
2022-09-18T03:50:11.221Z,98248.41
2022-09-18T03:52:37.822Z,98232.59
2022-09-18T03:55:04.639Z,98245.69
2022-09-18T03:57:31.094Z,98251.03
2022-09-18T03:59:57.551Z,98242.88
2022-09-18T04:02:23.988Z,98240.91
2022-09-18T04:04:50.453Z,98241.13
2022-09-18T04:07:18.125Z,98248.06
2022-09-18T04:09:45.024Z,98245.97
2022-09-18T04:12:11.628Z,98246.69
2022-09-18T04:14:38.114Z,98250.06
2022-09-18T04:17:04.772Z,98249.38
2022-09-18T04:19:31.257Z,98246.72
2022-09-18T04:21:57.703Z,98247.34
2022-09-18T04:24:24.245Z,98245.22
2022-09-18T04:26:50.797Z,98249.41
2022-09-18T04:29:17.229Z,98244.03
2022-09-18T04:31:43.789Z,98238.41
2022-09-18T04:34:10.291Z,98237.59
2022-09-18T04:36:36.754Z,98241.06
2022-09-18T04:39:03.828Z,98246.47
2022-09-18T04:41:30.627Z,98244.03
2022-09-18T04:43:57.118Z,98244.16
2022-09-18T04:46:23.572Z,98240.00
2022-09-18T04:48:50.450Z,98243.97
2022-09-18T04:51:17.396Z,98240.41
2022-09-18T04:53:43.877Z,98237.16
2022-09-18T04:56:10.347Z,98237.50
2022-09-18T04:58:36.900Z,98245.28
2022-09-18T05:01:03.577Z,98237.78
2022-09-18T05:03:30.098Z,98235.75
2022-09-18T05:05:56.647Z,98241.97
2022-09-18T05:08:23.436Z,98235.75
2022-09-18T05:10:49.926Z,98238.88
2022-09-18T05:13:16.693Z,98237.81
2022-09-18T05:15:43.250Z,98234.66
2022-09-18T05:18:12.108Z,98235.16
2022-09-18T05:20:39.038Z,98240.84
2022-09-18T05:23:07.020Z,98241.81
2022-09-18T05:25:33.867Z,98249.66
2022-09-18T05:28:03.404Z,98249.31
2022-09-18T05:30:31.143Z,98246.00
2022-09-18T05:33:03.690Z,98245.78
2022-09-18T05:35:33.579Z,98246.28
2022-09-18T05:38:01.143Z,98257.94
2022-09-18T05:40:33.191Z,98250.53
2022-09-18T05:42:59.936Z,98257.28
2022-09-18T05:45:26.594Z,98261.34
2022-09-18T05:48:05.617Z,98257.88
2022-09-18T05:50:33.578Z,98260.91
2022-09-18T05:53:13.620Z,98263.22
2022-09-18T05:55:40.761Z,98263.66
2022-09-18T05:58:13.680Z,98263.72
2022-09-18T06:00:40.645Z,98268.16
2022-09-18T06:03:11.567Z,98260.69
2022-09-18T06:05:39.073Z,98253.41
2022-09-18T06:08:10.198Z,98262.97
2022-09-18T06:10:40.292Z,98259.28
2022-09-18T06:13:12.040Z,98264.75
2022-09-18T06:15:39.632Z,98256.59
2022-09-18T06:18:09.041Z,98254.34
2022-09-18T06:20:35.843Z,98258.34
2022-09-18T06:23:03.341Z,98252.53
2022-09-18T06:25:30.979Z,98259.28
2022-09-18T06:28:00.191Z,98252.09
2022-09-18T06:30:31.956Z,98249.25
2022-09-18T06:33:07.455Z,98258.44
2022-09-18T06:35:36.003Z,98260.09
2022-09-18T06:38:04.770Z,98267.47
2022-09-18T06:40:33.157Z,98271.56
2022-09-18T06:43:01.787Z,98274.44
2022-09-18T06:45:30.831Z,98265.94
2022-09-18T06:48:04.460Z,98262.19
2022-09-18T06:50:31.558Z,98265.44
2022-09-18T06:53:06.707Z,98270.56
2022-09-18T06:55:35.332Z,98265.38
2022-09-18T06:58:01.877Z,98274.44
2022-09-18T07:00:28.462Z,98276.25
2022-09-18T07:03:00.978Z,98270.28
2022-09-18T07:05:32.520Z,98271.91
2022-09-18T07:07:59.837Z,98270.72
2022-09-18T07:10:27.032Z,98263.22
2022-09-18T07:12:58.722Z,98262.47
2022-09-18T07:15:26.850Z,98274.81
2022-09-18T07:18:01.640Z,98266.53
2022-09-18T07:20:29.465Z,98268.63
2022-09-18T07:23:01.644Z,98262.59
2022-09-18T07:25:31.310Z,98263.66
2022-09-18T07:28:07.772Z,98260.44
2022-09-18T07:30:35.997Z,98264.75
2022-09-18T07:33:04.782Z,98264.53
2022-09-18T07:35:32.843Z,98262.34
2022-09-18T07:38:01.253Z,98267.03
2022-09-18T07:40:29.572Z,98258.38
2022-09-18T07:43:07.085Z,98253.63
2022-09-18T07:45:34.934Z,98256.03
2022-09-18T07:48:04.302Z,98251.03
2022-09-18T07:50:32.034Z,98257.50
2022-09-18T07:53:05.330Z,98258.50
2022-09-18T07:55:36.103Z,98258.50
2022-09-18T07:58:06.898Z,98251.94
2022-09-18T08:00:36.502Z,98245.09
2022-09-18T08:03:05.899Z,98245.09
2022-09-18T08:05:33.108Z,98243.91
2022-09-18T08:08:08.773Z,98247.66
2022-09-18T08:10:36.627Z,98250.97
2022-09-18T08:13:03.871Z,98240.31
2022-09-18T08:15:31.629Z,98252.41
2022-09-18T08:17:58.253Z,98248.56
2022-09-18T08:20:24.695Z,98247.97
2022-09-18T08:22:51.249Z,98245.22
2022-09-18T08:25:17.835Z,98251.34
2022-09-18T08:27:44.415Z,98241.41
2022-09-18T08:30:14.595Z,98245.00
2022-09-18T08:32:41.964Z,98237.41
2022-09-18T08:35:10.854Z,98245.09
2022-09-18T08:37:37.507Z,98240.78
2022-09-18T08:40:05.457Z,98244.97
2022-09-18T08:42:51.297Z,98240.78
2022-09-18T08:45:47.520Z,98247.72
2022-09-18T08:48:24.171Z,98244.63
2022-09-18T08:51:06.628Z,98247.97
2022-09-18T08:53:45.327Z,98254.00
2022-09-18T08:56:20.334Z,98244.25
2022-09-18T08:59:07.390Z,98247.75
2022-09-18T09:01:57.630Z,98245.00
2022-09-18T09:04:29.987Z,98248.09
2022-09-18T09:07:24.606Z,98262.13
2022-09-18T09:10:24.973Z,98259.63
2022-09-18T09:13:05.618Z,98261.31
2022-09-18T09:15:50.331Z,98261.56
2022-09-18T09:18:19.388Z,98261.63
2022-09-18T09:20:55.588Z,98262.81
2022-09-18T09:23:37.192Z,98264.41
2022-09-18T09:26:16.164Z,98261.16
2022-09-18T09:29:19.319Z,98266.53
2022-09-18T09:31:56.928Z,98275.78
2022-09-18T09:34:49.011Z,98263.78
2022-09-18T09:37:23.894Z,98275.06
2022-09-18T09:40:10.325Z,98262.00
2022-09-18T09:42:58.275Z,98258.78
2022-09-18T09:45:33.202Z,98256.34
2022-09-18T09:48:30.104Z,98256.63
2022-09-18T09:51:43.210Z,98247.50
2022-09-18T09:54:12.669Z,98252.06
2022-09-18T09:56:58.368Z,98242.22
2022-09-18T09:59:47.517Z,98235.28
2022-09-18T10:02:37.284Z,98241.03
2022-09-18T10:06:10.203Z,98241.38
2022-09-18T10:09:12.951Z,98235.28
2022-09-18T10:11:49.106Z,98233.25
2022-09-18T10:14:25.195Z,98222.78
2022-09-18T10:16:56.468Z,98221.44
2022-09-18T10:19:34.738Z,98213.84
2022-09-18T10:22:07.415Z,98218.66
2022-09-18T10:25:01.663Z,98224.16
2022-09-18T10:27:28.157Z,98217.84
2022-09-18T10:29:55.171Z,98216.63
2022-09-18T10:32:41.506Z,98229.47
2022-09-18T10:35:29.727Z,98220.44
2022-09-18T10:37:58.158Z,98218.34
2022-09-18T10:40:39.570Z,98215.44
2022-09-18T10:43:18.850Z,98212.78
2022-09-18T10:45:54.409Z,98205.47
2022-09-18T10:48:26.121Z,98202.41
2022-09-18T10:50:59.991Z,98204.13
2022-09-18T10:53:32.746Z,98204.91
2022-09-18T10:56:17.646Z,98197.06
2022-09-18T10:58:44.977Z,98195.22
2022-09-18T11:01:13.789Z,98188.63
2022-09-18T11:03:59.424Z,98186.19
2022-09-18T11:06:29.879Z,98190.28
2022-09-18T11:09:00.913Z,98192.25
2022-09-18T11:11:34.059Z,98189.72
2022-09-18T11:14:14.298Z,98183.34
2022-09-18T11:16:49.538Z,98192.25
2022-09-18T11:19:33.568Z,98188.66
2022-09-18T11:22:06.716Z,98193.56
2022-09-18T11:24:37.798Z,98185.78
2022-09-18T11:27:23.618Z,98190.00
2022-09-18T11:29:50.090Z,98202.63
2022-09-18T11:32:33.687Z,98196.13
2022-09-18T11:35:05.581Z,98184.84
2022-09-18T11:37:37.418Z,98186.66
2022-09-18T11:40:15.158Z,98181.00
2022-09-18T11:42:44.845Z,98188.69
2022-09-18T11:45:48.787Z,98180.06
2022-09-18T11:48:40.925Z,98188.97
2022-09-18T11:51:20.504Z,98185.00
2022-09-18T11:53:55.208Z,98188.03
2022-09-18T11:56:41.848Z,98183.72
2022-09-18T11:59:27.018Z,98182.75
2022-09-18T12:02:09.185Z,98185.16
2022-09-18T12:04:49.140Z,98179.41
2022-09-18T12:07:40.611Z,98172.41
2022-09-18T12:10:54.619Z,98171.50
2022-09-18T12:13:45.275Z,98178.06
2022-09-18T12:16:25.722Z,98179.78
2022-09-18T12:19:10.001Z,98177.00
2022-09-18T12:21:52.331Z,98169.81
2022-09-18T12:24:18.939Z,98160.72
2022-09-18T12:27:25.998Z,98163.81
2022-09-18T12:30:08.026Z,98180.56
2022-09-18T12:33:15.829Z,98162.84
2022-09-18T12:36:04.921Z,98152.06
2022-09-18T12:39:10.098Z,98160.22
2022-09-18T12:42:14.113Z,98151.81
2022-09-18T12:45:20.454Z,98156.88
2022-09-18T12:48:05.461Z,98162.13
2022-09-18T12:51:00.381Z,98162.00
2022-09-18T12:53:49.589Z,98164.53
2022-09-18T12:56:27.814Z,98165.47
2022-09-18T12:58:57.272Z,98168.97
2022-09-18T13:01:46.103Z,98171.25
2022-09-18T13:04:33.208Z,98184.78
2022-09-18T13:07:20.011Z,98195.22
2022-09-18T13:10:05.058Z,98196.84
2022-09-18T13:12:55.163Z,98193.91
2022-09-18T13:15:28.895Z,98224.97
2022-09-18T13:18:18.226Z,98231.66
2022-09-18T13:20:46.562Z,98256.41
2022-09-18T13:23:28.587Z,98226.50
2022-09-18T13:25:57.547Z,98215.44
2022-09-18T13:28:25.786Z,98208.06
2022-09-18T13:31:35.682Z,98206.38
2022-09-18T13:34:13.776Z,98202.00
2022-09-18T13:36:44.455Z,98192.44
2022-09-18T13:39:35.509Z,98200.63
2022-09-18T13:42:07.614Z,98186.84
2022-09-18T13:44:37.556Z,98185.59
2022-09-18T13:47:14.968Z,98186.84
2022-09-18T13:49:54.237Z,98177.16
2022-09-18T13:52:27.543Z,98182.09
2022-09-18T13:55:20.019Z,98180.09
2022-09-18T13:57:46.483Z,98178.63
2022-09-18T14:00:21.761Z,98181.94
2022-09-18T14:03:14.233Z,98173.84
2022-09-18T14:05:42.879Z,98175.56
2022-09-18T14:08:30.063Z,98176.69
2022-09-18T14:11:14.969Z,98172.63
2022-09-18T14:13:55.415Z,98174.06
2022-09-18T14:16:23.839Z,98168.50
2022-09-18T14:19:25.403Z,98167.00
2022-09-18T14:21:52.314Z,98177.34
2022-09-18T14:24:44.946Z,98171.34
2022-09-18T14:27:53.441Z,98166.84
2022-09-18T14:30:24.536Z,98161.13
2022-09-18T14:33:09.530Z,98155.34
2022-09-18T14:36:07.310Z,98159.78
2022-09-18T14:38:36.423Z,98162.06
2022-09-18T14:41:15.878Z,98164.66
2022-09-18T14:44:02.876Z,98162.50
2022-09-18T14:46:32.282Z,98154.81
2022-09-18T14:48:59.839Z,98152.03
2022-09-18T14:51:35.065Z,98147.66
2022-09-18T14:54:23.546Z,98147.09
2022-09-18T14:56:53.660Z,98147.13
2022-09-18T14:59:20.932Z,98143.22
2022-09-18T15:01:48.192Z,98140.00
2022-09-18T15:04:20.291Z,98128.97
2022-09-18T15:06:51.255Z,98135.50
2022-09-18T15:09:30.719Z,98136.69
2022-09-18T15:12:04.784Z,98131.13
2022-09-18T15:14:42.662Z,98129.69
2022-09-18T15:17:27.300Z,98129.81
2022-09-18T15:20:17.004Z,98122.53
2022-09-18T15:22:43.612Z,98115.63
2022-09-18T15:25:15.319Z,98124.97
2022-09-18T15:27:44.706Z,98135.97
2022-09-18T15:30:21.613Z,98142.34
2022-09-18T15:33:12.663Z,98152.16
2022-09-18T15:35:39.151Z,98146.78
2022-09-18T15:38:16.065Z,98155.16
2022-09-18T15:40:43.559Z,98149.78
2022-09-18T15:43:40.905Z,98159.47
2022-09-18T15:46:24.571Z,98173.28
2022-09-18T15:48:51.935Z,98176.81
2022-09-18T15:51:25.493Z,98164.72
2022-09-18T15:54:13.117Z,98172.00
2022-09-18T15:56:50.290Z,98169.69
2022-09-18T15:59:30.955Z,98176.09
2022-09-18T16:02:07.966Z,98176.81
2022-09-18T16:04:36.011Z,98177.53
2022-09-18T16:07:21.342Z,98180.28
2022-09-18T16:09:49.439Z,98176.22
2022-09-18T16:12:30.781Z,98181.50
2022-09-18T16:15:25.421Z,98182.44
2022-09-18T16:18:25.403Z,98181.91
2022-09-18T16:20:53.309Z,98180.78
2022-09-18T16:23:35.824Z,98184.25
2022-09-18T16:26:33.277Z,98186.66
2022-09-18T16:29:14.666Z,98183.91
2022-09-18T16:31:41.178Z,98188.00
2022-09-18T16:34:22.731Z,98175.81
2022-09-18T16:36:50.260Z,98172.47
2022-09-18T16:39:20.982Z,98168.59
2022-09-18T16:41:48.399Z,98169.69
2022-09-18T16:44:16.933Z,98173.16
2022-09-18T16:46:49.077Z,98176.22
2022-09-18T16:49:21.626Z,98173.09
2022-09-18T16:51:48.142Z,98172.66
2022-09-18T16:54:14.642Z,98182.34
2022-09-18T16:56:51.518Z,98178.66
2022-09-18T16:59:21.659Z,98176.84
2022-09-18T17:02:03.008Z,98175.72
2022-09-18T17:04:31.182Z,98172.94
2022-09-18T17:06:57.779Z,98167.13
2022-09-18T17:09:24.758Z,98172.75
2022-09-18T17:11:53.012Z,98170.97
2022-09-18T17:14:20.520Z,98182.72
2022-09-18T17:16:47.416Z,98173.03
2022-09-18T17:19:14.318Z,98183.56
2022-09-18T17:21:41.659Z,98179.41
2022-09-18T17:24:08.993Z,98186.66
2022-09-18T17:26:40.000Z,98185.75
2022-09-18T17:29:08.496Z,98188.16
2022-09-18T17:31:34.991Z,98189.56
2022-09-18T17:34:02.114Z,98192.19
2022-09-18T17:36:28.884Z,98197.44
2022-09-18T17:38:57.542Z,98192.28
2022-09-18T17:41:25.954Z,98195.56
2022-09-18T17:43:53.528Z,98204.63
2022-09-18T17:46:20.804Z,98203.69
2022-09-18T17:48:47.674Z,98211.13
2022-09-18T17:51:18.287Z,98214.59
2022-09-18T17:53:47.816Z,98223.56
2022-09-18T17:56:18.985Z,98229.41
2022-09-18T17:58:46.365Z,98242.88
2022-09-18T18:01:17.471Z,98236.88
2022-09-18T18:03:44.714Z,98239.72
2022-09-18T18:06:11.198Z,98233.00
2022-09-18T18:08:38.214Z,98242.56
2022-09-18T18:11:09.576Z,98238.13
2022-09-18T18:13:38.271Z,98233.31
2022-09-18T18:16:23.036Z,98243.00
2022-09-18T18:18:53.595Z,98235.84
2022-09-18T18:21:20.802Z,98247.81
2022-09-18T18:23:47.317Z,98244.88
2022-09-18T18:26:14.066Z,98242.88
2022-09-18T18:28:41.827Z,98243.28
2022-09-18T18:31:13.543Z,98247.88
2022-09-18T18:33:44.980Z,98242.22
2022-09-18T18:36:23.853Z,98246.31
2022-09-18T18:38:54.887Z,98246.31
2022-09-18T18:41:24.066Z,98242.53
2022-09-18T18:43:56.982Z,98250.53
2022-09-18T18:46:26.880Z,98251.16
2022-09-18T18:49:03.960Z,98246.66
2022-09-18T18:51:37.102Z,98242.88
2022-09-18T18:54:06.297Z,98219.44
2022-09-18T18:56:37.491Z,98226.28
2022-09-18T18:59:08.660Z,98217.75
2022-09-18T19:01:35.723Z,98202.00
2022-09-18T19:04:09.191Z,98203.47
2022-09-18T19:06:39.346Z,98205.97
2022-09-18T19:09:20.098Z,98202.72
2022-09-18T19:11:49.863Z,98203.03
2022-09-18T19:14:22.082Z,98208.28
2022-09-18T19:16:51.727Z,98216.78
2022-09-18T19:19:21.602Z,98223.19
2022-09-18T19:21:48.287Z,98231.28
2022-09-18T19:24:16.547Z,98235.19
2022-09-18T19:26:43.195Z,98241.66
2022-09-18T19:29:14.861Z,98237.34
2022-09-18T19:31:44.097Z,98239.31
2022-09-18T19:34:19.533Z,98254.41
2022-09-18T19:36:49.897Z,98250.81
2022-09-18T19:39:18.908Z,98251.34
2022-09-18T19:42:12.053Z,98247.78
2022-09-18T19:44:53.336Z,98242.44
2022-09-18T19:47:37.715Z,98242.75
2022-09-18T19:50:05.882Z,98248.78
2022-09-18T19:52:32.499Z,98253.66
2022-09-18T19:54:59.615Z,98253.03
2022-09-18T19:57:28.217Z,98253.91
2022-09-18T19:59:56.950Z,98273.94
2022-09-18T20:02:25.251Z,98270.78
2022-09-18T20:04:51.750Z,98269.47
2022-09-18T20:07:18.525Z,98272.28
2022-09-18T20:09:44.978Z,98276.03
2022-09-18T20:12:12.629Z,98270.25
2022-09-18T20:14:39.164Z,98278.13
2022-09-18T20:17:05.771Z,98277.91
2022-09-18T20:19:32.458Z,98281.09
2022-09-18T20:22:02.875Z,98268.91
2022-09-18T20:24:31.690Z,98281.09
2022-09-18T20:26:59.918Z,98280.34
2022-09-18T20:29:27.376Z,98268.72
2022-09-18T20:31:53.932Z,98271.00
2022-09-18T20:34:24.610Z,98271.56
2022-09-18T20:36:54.908Z,98270.63
2022-09-18T20:39:21.760Z,98263.59
2022-09-18T20:41:50.633Z,98260.31
2022-09-18T20:44:17.907Z,98275.50
2022-09-18T20:46:44.418Z,98261.81
2022-09-18T20:49:12.815Z,98271.22
2022-09-18T20:51:39.261Z,98271.47
2022-09-18T20:54:09.392Z,98260.78
2022-09-18T20:56:42.006Z,98281.59
2022-09-18T20:59:14.280Z,98281.94
2022-09-18T21:01:43.642Z,98271.16
2022-09-18T21:04:17.720Z,98274.09
2022-09-18T21:06:48.697Z,98280.09
2022-09-18T21:09:15.606Z,98277.91
2022-09-18T21:11:44.772Z,98274.91
2022-09-18T21:14:17.775Z,98278.13
2022-09-18T21:16:44.844Z,98278.66
2022-09-18T21:19:14.522Z,98274.53
2022-09-18T21:21:41.399Z,98273.28
2022-09-18T21:24:08.731Z,98282.66
2022-09-18T21:27:02.970Z,98282.97
2022-09-18T21:29:29.869Z,98286.72
2022-09-18T21:31:59.816Z,98284.63
2022-09-18T21:34:31.127Z,98283.31
2022-09-18T21:37:03.946Z,98279.47
2022-09-18T21:39:32.407Z,98279.91
2022-09-18T21:42:01.226Z,98272.38
2022-09-18T21:44:31.620Z,98278.56
2022-09-18T21:47:03.041Z,98276.09
2022-09-18T21:49:30.650Z,98281.97
2022-09-18T21:52:02.727Z,98286.16
2022-09-18T21:54:29.287Z,98278.13
2022-09-18T21:56:56.394Z,98280.03
2022-09-18T21:59:26.102Z,98277.13
2022-09-18T22:01:54.596Z,98281.13
2022-09-18T22:04:28.889Z,98290.28
2022-09-18T22:06:58.189Z,98284.63
2022-09-18T22:09:32.286Z,98281.16
2022-09-18T22:12:01.184Z,98276.41
2022-09-18T22:14:32.150Z,98294.81
2022-09-18T22:17:01.981Z,98290.28
2022-09-18T22:19:29.565Z,98290.63
2022-09-18T22:21:56.750Z,98289.88
2022-09-18T22:24:25.537Z,98293.03
2022-09-18T22:26:59.859Z,98296.13
2022-09-18T22:29:30.381Z,98295.81
2022-09-18T22:31:59.352Z,98300.72
2022-09-18T22:34:29.501Z,98298.31
2022-09-18T22:36:58.408Z,98301.25
2022-09-18T22:39:25.165Z,98295.72
2022-09-18T22:41:51.998Z,98303.50
2022-09-18T22:44:22.704Z,98301.00
2022-09-18T22:46:54.590Z,98304.97
2022-09-18T22:49:23.162Z,98312.34
2022-09-18T22:51:50.618Z,98311.91
2022-09-18T22:54:23.463Z,98318.44
2022-09-18T22:56:51.629Z,98318.31
2022-09-18T22:59:22.500Z,98323.88
2022-09-18T23:02:03.493Z,98324.41
2022-09-18T23:04:33.396Z,98323.38
2022-09-18T23:07:01.240Z,98321.38
2022-09-18T23:09:29.053Z,98320.34
2022-09-18T23:11:58.122Z,98303.63
2022-09-18T23:14:28.863Z,98299.84
2022-09-18T23:16:57.298Z,98303.44
2022-09-18T23:19:30.219Z,98314.03
2022-09-18T23:21:57.148Z,98305.63
2022-09-18T23:24:24.739Z,98301.84
2022-09-18T23:26:55.190Z,98305.00
2022-09-18T23:29:23.959Z,98314.03
2022-09-18T23:31:53.376Z,98312.38
2022-09-18T23:34:23.970Z,98316.59
2022-09-18T23:36:54.642Z,98322.28
2022-09-18T23:39:26.856Z,98325.13
2022-09-18T23:41:53.321Z,98327.22
2022-09-18T23:44:22.558Z,98333.53
2022-09-18T23:46:51.221Z,98335.50
2022-09-18T23:49:23.541Z,98338.06
2022-09-18T23:51:53.737Z,98334.06
2022-09-18T23:54:30.043Z,98337.19
2022-09-18T23:56:56.536Z,98339.47
2022-09-18T23:59:25.326Z,98335.31
